createdAt,value
2018-06-17T00:00:46.780Z,19.91
2018-06-17T00:03:14.371Z,19.91
2018-06-17T00:05:43.425Z,19.91
2018-06-17T00:08:11.302Z,19.89
2018-06-17T00:10:38.890Z,19.89
2018-06-17T00:13:06.479Z,19.91
2018-06-17T00:15:34.388Z,19.91
2018-06-17T00:18:01.987Z,19.91
2018-06-17T00:20:29.579Z,19.90
2018-06-17T00:22:57.485Z,19.89
2018-06-17T00:25:25.114Z,19.88
2018-06-17T00:27:52.690Z,19.88
2018-06-17T00:30:20.543Z,19.86
2018-06-17T00:32:48.152Z,19.85
2018-06-17T00:35:15.740Z,19.85
2018-06-17T00:37:43.606Z,19.84
2018-06-17T00:40:11.250Z,19.83
2018-06-17T00:42:38.850Z,19.82
2018-06-17T00:45:06.694Z,19.81
2018-06-17T00:47:34.301Z,19.78
2018-06-17T00:50:03.309Z,19.77
2018-06-17T00:52:31.182Z,19.76
2018-06-17T00:54:58.755Z,19.72
2018-06-17T00:57:26.328Z,19.71
2018-06-17T00:59:54.199Z,19.69
2018-06-17T01:02:21.804Z,19.65
2018-06-17T01:04:49.384Z,19.64
2018-06-17T01:07:17.256Z,19.61
2018-06-17T01:09:44.891Z,19.57
2018-06-17T01:12:12.466Z,19.53
2018-06-17T01:14:40.546Z,19.51
2018-06-17T01:17:08.152Z,19.50
2018-06-17T01:19:35.766Z,19.49
2018-06-17T01:22:03.886Z,19.48
2018-06-17T01:24:31.523Z,19.46
2018-06-17T01:26:59.118Z,19.45
2018-06-17T01:29:27.017Z,19.43
2018-06-17T01:31:54.631Z,19.40
2018-06-17T01:34:23.326Z,19.38
2018-06-17T01:36:51.226Z,19.36
2018-06-17T01:39:18.816Z,19.33
2018-06-17T01:41:46.413Z,19.28
2018-06-17T01:44:14.299Z,19.25
2018-06-17T01:46:41.886Z,19.23
2018-06-17T01:49:09.534Z,19.21
2018-06-17T01:51:38.384Z,19.19
2018-06-17T01:54:06.826Z,19.15
2018-06-17T01:56:34.409Z,19.11
2018-06-17T01:59:01.996Z,19.08
2018-06-17T02:01:29.858Z,19.05
2018-06-17T02:04:02.395Z,19.00
2018-06-17T02:06:36.067Z,18.96
2018-06-17T02:09:08.658Z,18.95
2018-06-17T02:12:38.382Z,18.90
2018-06-17T02:15:06.300Z,18.82
2018-06-17T02:17:34.713Z,18.77
2018-06-17T02:20:02.308Z,18.74
2018-06-17T02:22:29.880Z,18.70
2018-06-17T02:24:58.359Z,18.66
2018-06-17T02:27:27.126Z,18.62
2018-06-17T02:29:54.691Z,18.59
2018-06-17T02:32:22.559Z,18.56
2018-06-17T02:34:50.174Z,18.54
2018-06-17T02:37:17.766Z,18.48
2018-06-17T02:39:45.349Z,18.44
2018-06-17T02:42:13.746Z,18.45
2018-06-17T02:44:41.367Z,18.41
2018-06-17T02:47:13.996Z,18.38
2018-06-17T02:49:41.848Z,18.34
2018-06-17T02:52:14.369Z,18.29
2018-06-17T02:54:47.799Z,18.27
2018-06-17T02:57:16.528Z,18.27
2018-06-17T02:59:44.967Z,18.25
2018-06-17T03:02:12.964Z,18.23
2018-06-17T03:04:40.557Z,18.18
2018-06-17T03:07:08.399Z,18.16
2018-06-17T03:09:35.989Z,18.15
2018-06-17T03:12:03.554Z,18.12
2018-06-17T03:14:31.412Z,18.11
2018-06-17T03:16:58.999Z,18.10
2018-06-17T03:19:26.599Z,18.09
2018-06-17T03:21:54.163Z,18.06
2018-06-17T03:24:27.170Z,18.05
2018-06-17T03:26:59.676Z,18.03
2018-06-17T03:29:32.246Z,18.03
2018-06-17T03:32:05.043Z,18.01
2018-06-17T03:34:32.626Z,18.00
2018-06-17T03:37:00.222Z,18.01
2018-06-17T03:39:28.123Z,18.01
2018-06-17T03:41:55.730Z,18.01
2018-06-17T03:44:23.319Z,18.02
2018-06-17T03:46:50.907Z,18.02
2018-06-17T03:49:18.746Z,18.02
2018-06-17T03:51:46.316Z,18.02
2018-06-17T03:54:13.910Z,18.00
2018-06-17T03:56:41.490Z,18.01
2018-06-17T03:59:09.351Z,18.00
2018-06-17T04:01:36.926Z,18.00
2018-06-17T04:04:04.526Z,18.00
2018-06-17T04:06:32.543Z,17.98
2018-06-17T04:09:01.541Z,17.99
2018-06-17T04:11:29.138Z,18.02
2018-06-17T04:13:56.697Z,18.02
2018-06-17T04:16:24.615Z,18.04
2018-06-17T04:18:52.175Z,18.04
2018-06-17T04:21:19.740Z,18.05
2018-06-17T04:23:47.322Z,18.08
2018-06-17T04:26:15.175Z,18.09
2018-06-17T04:28:42.750Z,18.09
2018-06-17T04:31:10.326Z,18.10
2018-06-17T04:33:39.321Z,18.12
2018-06-17T04:36:07.598Z,18.12
2018-06-17T04:38:38.426Z,18.11
2018-06-17T04:41:06.846Z,18.13
2018-06-17T04:43:34.429Z,18.12
2018-06-17T04:46:02.028Z,18.11
2018-06-17T04:48:29.603Z,18.15
2018-06-17T04:50:57.446Z,18.16
2018-06-17T04:53:25.006Z,18.18
2018-06-17T04:55:52.590Z,18.22
2018-06-17T04:58:20.420Z,18.23
2018-06-17T05:00:48.011Z,18.26
2018-06-17T05:03:15.613Z,18.29
2018-06-17T05:05:43.220Z,18.30
2018-06-17T05:08:11.106Z,18.32
2018-06-17T05:10:38.726Z,18.35
2018-06-17T05:13:06.346Z,18.39
2018-06-17T05:15:33.904Z,18.43
2018-06-17T05:18:01.790Z,18.45
2018-06-17T05:20:29.378Z,18.46
2018-06-17T05:22:56.978Z,18.48
2018-06-17T05:25:24.563Z,18.53
2018-06-17T05:27:52.419Z,18.57
2018-06-17T05:30:20.234Z,18.59
2018-06-17T05:32:47.814Z,18.61
2018-06-17T05:35:15.730Z,18.63
2018-06-17T05:37:43.569Z,18.67
2018-06-17T05:40:11.185Z,18.72
2018-06-17T05:42:38.789Z,18.74
2018-06-17T05:45:06.629Z,18.75
2018-06-17T05:47:37.080Z,18.76
2018-06-17T05:50:04.679Z,18.80
2018-06-17T05:52:32.270Z,18.84
2018-06-17T05:55:00.119Z,18.89
2018-06-17T05:57:27.696Z,18.92
2018-06-17T05:59:55.282Z,18.95
2018-06-17T06:02:23.614Z,18.96
2018-06-17T06:04:51.485Z,18.96
2018-06-17T06:07:19.065Z,18.96
2018-06-17T06:09:46.634Z,18.99
2018-06-17T06:12:15.162Z,19.03
2018-06-17T06:14:42.729Z,19.04
2018-06-17T06:17:11.201Z,19.06
2018-06-17T06:19:39.058Z,19.09
2018-06-17T06:22:06.688Z,19.13
2018-06-17T06:24:34.306Z,19.19
2018-06-17T06:27:01.890Z,19.23
2018-06-17T06:29:29.775Z,19.24
2018-06-17T06:31:57.352Z,19.27
2018-06-17T06:34:24.915Z,19.31
2018-06-17T06:36:52.480Z,19.35
2018-06-17T06:39:21.283Z,19.37
2018-06-17T06:41:48.850Z,19.39
2018-06-17T06:44:16.404Z,19.39
2018-06-17T06:46:44.699Z,19.41
2018-06-17T06:49:12.587Z,19.41
2018-06-17T06:51:40.166Z,19.42
2018-06-17T06:54:08.399Z,19.43
2018-06-17T06:56:37.232Z,19.43
2018-06-17T06:59:04.802Z,19.43
2018-06-17T07:01:34.146Z,19.46
2018-06-17T07:04:01.759Z,19.49
2018-06-17T07:06:29.639Z,19.51
2018-06-17T07:08:57.571Z,19.55
2018-06-17T07:11:26.278Z,19.58
2018-06-17T07:13:54.234Z,19.63
2018-06-17T07:16:21.825Z,19.65
2018-06-17T07:18:49.404Z,19.66
2018-06-17T07:21:17.282Z,19.64
2018-06-17T07:23:45.668Z,19.66
2018-06-17T07:26:13.314Z,19.72
2018-06-17T07:28:40.893Z,19.73
2018-06-17T07:31:09.629Z,19.85
2018-06-17T07:33:37.204Z,19.81
2018-06-17T07:36:04.807Z,19.81
2018-06-17T07:38:32.666Z,19.81
2018-06-17T07:41:00.270Z,19.82
2018-06-17T07:43:27.859Z,19.83
2018-06-17T07:45:55.716Z,19.82
2018-06-17T07:48:23.530Z,19.86
2018-06-17T07:50:53.358Z,19.90
2018-06-17T07:53:22.186Z,19.94
2018-06-17T07:55:50.394Z,19.99
2018-06-17T07:58:19.688Z,20.00
2018-06-17T08:00:47.558Z,20.01
2018-06-17T08:03:16.527Z,20.01
2018-06-17T08:05:44.114Z,20.03
2018-06-17T08:08:11.967Z,20.04
2018-06-17T08:10:40.175Z,20.06
2018-06-17T08:13:08.722Z,20.05
2018-06-17T08:15:36.575Z,20.06
2018-06-17T08:18:04.155Z,20.07
2018-06-17T08:20:31.738Z,20.10
2018-06-17T08:23:00.137Z,20.16
2018-06-17T08:25:28.585Z,20.21
2018-06-17T08:27:56.389Z,20.24
2018-06-17T08:30:25.337Z,20.24
2018-06-17T08:32:53.598Z,20.23
2018-06-17T08:35:22.734Z,20.24
2018-06-17T08:37:50.578Z,20.23
2018-06-17T08:40:19.004Z,20.25
2018-06-17T08:42:47.082Z,20.25
2018-06-17T08:45:14.933Z,20.24
2018-06-17T08:47:42.487Z,20.25
2018-06-17T08:50:10.051Z,20.28
2018-06-17T08:52:39.051Z,20.32
2018-06-17T08:55:06.614Z,20.33
2018-06-17T08:57:34.208Z,20.36
2018-06-17T09:00:02.078Z,20.37
2018-06-17T09:02:31.489Z,20.38
2018-06-17T09:04:59.290Z,20.38
2018-06-17T09:07:28.279Z,20.37
2018-06-17T09:09:55.833Z,20.37
2018-06-17T09:12:23.481Z,20.39
2018-06-17T09:14:51.620Z,20.43
2018-06-17T09:17:20.020Z,20.47
2018-06-17T09:19:47.608Z,20.51
2018-06-17T09:22:15.560Z,20.54
2018-06-17T09:24:44.270Z,20.57
2018-06-17T09:27:12.434Z,20.57
2018-06-17T09:29:41.689Z,20.59
2018-06-17T09:32:09.315Z,20.60
2018-06-17T09:34:38.536Z,20.63
2018-06-17T09:37:06.415Z,20.67
2018-06-17T09:39:35.443Z,20.69
2018-06-17T09:42:03.028Z,20.73
2018-06-17T09:44:31.706Z,20.77
2018-06-17T09:46:59.287Z,20.78
2018-06-17T09:49:26.864Z,20.79
2018-06-17T09:51:55.534Z,20.81
2018-06-17T09:54:23.909Z,20.87
2018-06-17T09:56:51.454Z,20.89
2018-06-17T09:59:19.301Z,20.94
2018-06-17T10:01:46.935Z,20.95
2018-06-17T10:04:14.502Z,20.96
2018-06-17T10:06:42.355Z,20.96
2018-06-17T10:09:10.751Z,20.95
2018-06-17T10:11:38.330Z,20.96
2018-06-17T10:14:07.408Z,20.93
2018-06-17T10:16:37.258Z,20.88
2018-06-17T10:19:07.321Z,20.85
2018-06-17T10:21:35.629Z,20.88
2018-06-17T10:24:05.321Z,20.87
2018-06-17T10:26:33.206Z,20.88
2018-06-17T10:29:02.462Z,20.89
2018-06-17T10:31:32.227Z,20.91
2018-06-17T10:34:00.060Z,20.93
2018-06-17T10:36:27.640Z,20.92
2018-06-17T10:38:55.222Z,20.91
2018-06-17T10:41:24.459Z,20.90
2018-06-17T10:43:52.323Z,20.93
2018-06-17T10:46:20.699Z,20.93
2018-06-17T10:48:49.371Z,20.93
2018-06-17T10:51:17.825Z,20.93
2018-06-17T10:53:45.639Z,20.91
2018-06-17T10:56:13.530Z,20.91
2018-06-17T10:58:41.101Z,20.93
2018-06-17T11:01:10.384Z,20.93
2018-06-17T11:03:38.259Z,20.92
2018-06-17T11:06:05.821Z,20.92
2018-06-17T11:08:33.394Z,20.89
2018-06-17T11:11:01.262Z,20.88
2018-06-17T11:13:29.470Z,20.89
2018-06-17T11:15:57.055Z,20.90
2018-06-17T11:18:25.839Z,20.92
2018-06-17T11:20:54.417Z,20.92
2018-06-17T11:23:22.230Z,20.94
2018-06-17T11:25:52.380Z,20.95
2018-06-17T11:28:22.199Z,20.96
2018-06-17T11:30:50.637Z,20.97
2018-06-17T11:33:19.455Z,20.95
2018-06-17T11:35:47.058Z,20.95
2018-06-17T11:38:16.367Z,20.96
2018-06-17T11:40:44.252Z,20.95
2018-06-17T11:43:12.635Z,20.95
2018-06-17T11:45:46.739Z,20.95
2018-06-17T11:48:15.262Z,20.94
2018-06-17T11:50:45.673Z,20.97
2018-06-17T11:53:14.955Z,21.00
2018-06-17T11:55:42.830Z,21.02
2018-06-17T11:58:11.503Z,21.03
2018-06-17T12:00:39.303Z,21.07
2018-06-17T12:03:08.258Z,21.10
2018-06-17T12:05:35.826Z,21.10
2018-06-17T12:08:04.132Z,21.08
2018-06-17T12:10:31.999Z,21.04
2018-06-17T12:13:00.912Z,21.02
2018-06-17T12:15:28.487Z,20.99
2018-06-17T12:17:57.282Z,20.99
2018-06-17T12:20:26.084Z,21.00
2018-06-17T12:22:53.658Z,21.03
2018-06-17T12:25:21.589Z,21.02
2018-06-17T12:27:49.149Z,21.00
2018-06-17T12:30:17.428Z,20.99
2018-06-17T12:32:45.523Z,20.98
2018-06-17T12:35:13.088Z,21.00
2018-06-17T12:37:40.663Z,20.98
2018-06-17T12:40:10.046Z,20.95
2018-06-17T12:42:38.463Z,20.92
2018-06-17T12:45:07.069Z,20.91
2018-06-17T12:47:36.174Z,20.91
2018-06-17T12:50:03.742Z,20.93
2018-06-17T12:52:31.341Z,20.94
2018-06-17T12:54:59.333Z,20.93
2018-06-17T12:57:28.513Z,20.94
2018-06-17T12:59:57.406Z,20.93
2018-06-17T13:02:26.375Z,20.93
2018-06-17T13:04:55.505Z,20.92
2018-06-17T13:07:24.679Z,20.90
2018-06-17T13:09:52.539Z,20.89
2018-06-17T13:12:22.474Z,20.90
2018-06-17T13:14:50.036Z,20.89
2018-06-17T13:17:19.919Z,20.92
2018-06-17T13:19:47.498Z,20.93
2018-06-17T13:22:18.703Z,20.96
2018-06-17T13:24:47.806Z,20.96
2018-06-17T13:27:15.995Z,20.98
2018-06-17T13:29:43.549Z,21.00
2018-06-17T13:32:12.004Z,21.05
2018-06-17T13:34:40.182Z,21.09
2018-06-17T13:37:07.761Z,21.14
2018-06-17T13:39:37.714Z,21.21
2018-06-17T13:42:06.435Z,21.26
2018-06-17T13:44:35.278Z,21.29
2018-06-17T13:47:05.149Z,21.30
2018-06-17T13:49:33.729Z,21.29
2018-06-17T13:52:01.347Z,21.27
2018-06-17T13:54:29.188Z,21.25
2018-06-17T13:56:56.751Z,21.24
2018-06-17T13:59:24.683Z,21.24
2018-06-17T14:01:58.549Z,21.23
2018-06-17T14:04:27.458Z,21.22
2018-06-17T14:06:57.133Z,21.21
2018-06-17T14:09:26.301Z,21.19
2018-06-17T14:11:57.266Z,21.16
2018-06-17T14:14:26.523Z,21.11
2018-06-17T14:16:54.378Z,21.09
2018-06-17T14:19:22.601Z,21.12
2018-06-17T14:21:50.457Z,21.14
2018-06-17T14:24:18.326Z,21.18
2018-06-17T14:26:47.526Z,21.19
2018-06-17T14:29:17.208Z,21.25
2018-06-17T14:31:47.278Z,21.27
2018-06-17T14:34:15.818Z,21.31
2018-06-17T14:36:48.291Z,21.34
2018-06-17T14:39:19.750Z,21.36
2018-06-17T14:41:53.775Z,21.36
2018-06-17T14:44:26.455Z,21.35
2018-06-17T14:46:59.321Z,21.35
2018-06-17T14:49:32.968Z,21.34
2018-06-17T14:53:08.273Z,21.35
2018-06-17T14:55:36.698Z,21.38
2018-06-17T14:58:06.211Z,21.41
2018-06-17T15:00:33.793Z,21.46
2018-06-17T15:03:01.360Z,21.52
2018-06-17T15:05:30.850Z,21.59
2018-06-17T15:07:58.504Z,21.68
2018-06-17T15:10:27.200Z,21.75
2018-06-17T15:12:56.411Z,21.79
2018-06-17T15:15:25.330Z,21.83
2018-06-17T15:17:53.573Z,21.88
2018-06-17T15:20:21.483Z,21.96
2018-06-17T15:22:49.802Z,21.97
2018-06-17T15:25:17.493Z,21.98
2018-06-17T15:27:46.230Z,21.99
2018-06-17T15:30:13.805Z,21.99
2018-06-17T15:32:46.488Z,21.96
2018-06-17T15:35:20.330Z,21.95
2018-06-17T15:37:53.530Z,21.93
2018-06-17T15:40:27.998Z,21.88
2018-06-17T15:42:57.038Z,21.84
2018-06-17T15:45:28.288Z,21.83
2018-06-17T15:47:56.811Z,21.78
2018-06-17T15:50:26.490Z,21.74
2018-06-17T15:52:56.886Z,21.67
2018-06-17T15:55:32.211Z,21.56
2018-06-17T15:57:59.809Z,21.46
2018-06-17T16:00:29.659Z,21.38
2018-06-17T16:02:58.279Z,21.37
2018-06-17T16:05:27.220Z,21.36
2018-06-17T16:07:54.774Z,21.34
2018-06-17T16:10:23.536Z,21.33
2018-06-17T16:12:57.224Z,21.32
2018-06-17T16:15:31.442Z,21.29
2018-06-17T16:18:07.807Z,21.21
2018-06-17T16:20:41.120Z,21.15
2018-06-17T16:23:16.560Z,21.13
2018-06-17T16:25:46.429Z,21.12
2018-06-17T16:28:16.266Z,21.10
2018-06-17T16:30:44.449Z,21.08
2018-06-17T16:33:13.289Z,21.04
2018-06-17T16:35:43.098Z,21.01
2018-06-17T16:38:11.421Z,21.00
2018-06-17T16:40:40.658Z,20.98
2018-06-17T16:43:08.539Z,20.94
2018-06-17T16:45:36.119Z,20.93
2018-06-17T16:48:03.710Z,20.88
2018-06-17T16:50:34.474Z,20.84
2018-06-17T16:53:07.222Z,20.85
2018-06-17T16:55:41.250Z,20.85
2018-06-17T16:58:14.347Z,20.88
2018-06-17T17:00:42.883Z,20.88
2018-06-17T17:03:11.089Z,20.89
2018-06-17T17:05:40.114Z,20.89
2018-06-17T17:08:07.666Z,20.90
2018-06-17T17:10:36.226Z,20.92
2018-06-17T17:13:04.126Z,20.92
2018-06-17T17:15:32.688Z,20.93
2018-06-17T17:18:01.287Z,20.93
2018-06-17T17:20:29.132Z,20.93
2018-06-17T17:22:56.708Z,20.93
2018-06-17T17:25:24.274Z,20.93
2018-06-17T17:27:52.139Z,20.92
2018-06-17T17:30:22.510Z,20.92
2018-06-17T17:32:55.330Z,20.90
2018-06-17T17:35:28.266Z,20.89
2018-06-17T17:38:00.778Z,20.88
2018-06-17T17:40:34.182Z,20.85
2018-06-17T17:45:50.513Z,20.77
2018-06-17T17:48:18.966Z,20.74
2018-06-17T17:50:47.146Z,20.72
2018-06-17T17:53:14.727Z,20.70
2018-06-17T17:55:43.590Z,20.69
2018-06-17T17:58:12.089Z,20.66
2018-06-17T18:00:42.586Z,20.64
2018-06-17T18:03:12.788Z,20.64
2018-06-17T18:05:40.365Z,20.63
2018-06-17T18:08:07.915Z,20.62
2018-06-17T18:10:37.569Z,20.61
2018-06-17T18:13:06.279Z,20.60
2018-06-17T18:15:35.050Z,20.57
2018-06-17T18:18:04.117Z,20.55
2018-06-17T18:20:33.483Z,20.52
2018-06-17T18:23:01.050Z,20.49
2018-06-17T18:25:35.590Z,20.48
2018-06-17T18:28:08.223Z,20.47
2018-06-17T18:30:40.723Z,20.45
2018-06-17T18:33:14.422Z,20.42
2018-06-17T18:36:18.285Z,20.40
2018-06-17T18:38:47.454Z,20.39
2018-06-17T18:41:16.837Z,20.37
2018-06-17T18:43:46.587Z,20.37
2018-06-17T18:46:15.907Z,20.35
2018-06-17T18:48:52.089Z,20.34
2018-06-17T18:51:21.348Z,20.33
2018-06-17T18:53:49.235Z,20.33
2018-06-17T18:56:17.408Z,20.31
2018-06-17T18:58:46.086Z,20.30
2018-06-17T19:01:13.669Z,20.28
2018-06-17T19:03:43.128Z,20.27
2018-06-17T19:06:12.600Z,20.25
2018-06-17T19:08:45.607Z,20.25
2018-06-17T19:11:18.249Z,20.24
2018-06-17T19:13:51.580Z,20.23
2018-06-17T19:16:24.310Z,20.20
2018-06-17T19:18:52.202Z,20.18
2018-06-17T19:21:20.500Z,20.14
2018-06-17T19:23:48.210Z,20.13
2018-06-17T19:26:16.106Z,20.10
2018-06-17T19:28:43.736Z,20.06
2018-06-17T19:31:12.414Z,20.03
2018-06-17T19:33:40.494Z,20.00
2018-06-17T19:36:08.885Z,19.97
2018-06-17T19:38:37.297Z,19.95
2018-06-17T19:41:05.213Z,19.91
2018-06-17T19:43:32.816Z,19.90
2018-06-17T19:46:00.664Z,19.87
2018-06-17T19:48:28.549Z,19.86
2018-06-17T19:51:01.057Z,19.84
2018-06-17T19:53:33.721Z,19.82
2018-06-17T19:56:07.109Z,19.81
2018-06-17T19:58:40.319Z,19.78
2018-06-17T20:01:09.449Z,19.76
2018-06-17T20:03:38.643Z,19.74
2018-06-17T20:06:07.838Z,19.72
2018-06-17T20:08:36.405Z,19.70
2018-06-17T20:11:04.392Z,19.68
2018-06-17T20:13:35.234Z,19.68
2018-06-17T20:16:02.810Z,19.66
2018-06-17T20:18:32.617Z,19.66
2018-06-17T20:21:01.555Z,19.65
2018-06-17T20:23:33.882Z,19.64
2018-06-17T20:26:01.717Z,19.64
2018-06-17T20:28:33.366Z,19.63
2018-06-17T20:31:07.106Z,19.63
2018-06-17T20:33:41.465Z,19.61
2018-06-17T20:36:15.973Z,19.59
2018-06-17T20:38:49.238Z,19.58
2018-06-17T20:41:23.079Z,19.58
2018-06-17T20:43:58.667Z,19.56
2018-06-17T20:46:27.386Z,19.56
2018-06-17T20:48:56.238Z,19.54
2018-06-17T20:51:26.526Z,19.55
2018-06-17T20:53:54.111Z,19.52
2018-06-17T20:56:23.138Z,19.52
2018-06-17T20:58:52.622Z,19.51
2018-06-17T21:01:22.238Z,19.50
2018-06-17T21:03:56.415Z,19.49
2018-06-17T21:06:24.274Z,19.47
2018-06-17T21:08:53.401Z,19.45
2018-06-17T21:11:23.098Z,19.43
2018-06-17T21:13:51.452Z,19.41
2018-06-17T21:16:19.025Z,19.40
2018-06-17T21:18:52.362Z,19.38
2018-06-17T21:21:25.278Z,19.38
2018-06-17T21:24:01.023Z,19.37
2018-06-17T21:26:33.560Z,19.37
2018-06-17T21:29:02.843Z,19.35
2018-06-17T21:31:30.458Z,19.34
2018-06-17T21:34:01.815Z,19.32
2018-06-17T21:36:31.225Z,19.31
2018-06-17T21:38:59.404Z,19.31
2018-06-17T21:41:27.849Z,19.29
2018-06-17T21:43:58.478Z,19.28
2018-06-17T21:46:29.658Z,19.27
2018-06-17T21:48:57.454Z,19.25
2018-06-17T21:51:25.345Z,19.23
2018-06-17T21:53:53.958Z,19.23
2018-06-17T21:56:22.090Z,19.23
2018-06-17T21:58:51.521Z,19.22
2018-06-17T22:01:21.768Z,19.21
2018-06-17T22:03:50.168Z,19.19
2018-06-17T22:06:18.059Z,19.18
2018-06-17T22:08:50.700Z,19.17
2018-06-17T22:11:25.325Z,19.16
2018-06-17T22:13:58.138Z,19.13
2018-06-17T22:16:30.778Z,19.10
2018-06-17T22:18:59.398Z,19.08
2018-06-17T22:21:28.628Z,19.07
2018-06-17T22:23:56.217Z,19.06
2018-06-17T22:26:24.069Z,19.04
2018-06-17T22:28:52.226Z,19.02
2018-06-17T22:31:19.808Z,18.99
2018-06-17T22:33:47.654Z,18.99
2018-06-17T22:36:15.230Z,18.97
2018-06-17T22:38:43.445Z,18.96
2018-06-17T22:41:11.295Z,18.94
2018-06-17T22:43:38.873Z,18.93
2018-06-17T22:46:06.475Z,18.92
2018-06-17T22:48:34.319Z,18.90
2018-06-17T22:51:03.336Z,18.90
2018-06-17T22:53:31.741Z,18.89
2018-06-17T22:55:59.333Z,18.86
2018-06-17T22:58:32.269Z,18.86
2018-06-17T23:01:06.446Z,18.84
2018-06-17T23:03:40.119Z,18.82
2018-06-17T23:06:12.647Z,18.81
2018-06-17T23:08:45.310Z,18.79
2018-06-17T23:11:13.174Z,18.78
2018-06-17T23:13:41.465Z,18.76
2018-06-17T23:16:09.049Z,18.76
2018-06-17T23:18:37.374Z,18.76
2018-06-17T23:21:04.970Z,18.75
2018-06-17T23:23:32.529Z,18.75
2018-06-17T23:26:00.614Z,18.76
2018-06-17T23:28:28.225Z,18.76
2018-06-17T23:30:55.865Z,18.74
2018-06-17T23:33:23.429Z,18.73
2018-06-17T23:35:51.278Z,18.73
2018-06-17T23:38:20.218Z,18.72
2018-06-17T23:40:47.779Z,18.71
2018-06-17T23:43:15.346Z,18.71
2018-06-17T23:45:48.319Z,18.70
2018-06-17T23:48:20.870Z,18.69
2018-06-17T23:50:53.900Z,18.67
2018-06-17T23:53:26.702Z,18.68
2018-06-17T23:55:59.350Z,18.66
2018-06-17T23:58:26.915Z,18.66
